Time;durP1;ratioP1;P1;durP2;ratioP2;P2;SDS_P1;SDS_P2;PMS_P1;PMS_P2;Temp;Humidity;BMP_temperature;BMP_pressure;BME280_temperature;BME280_humidity;BME280_pressure;Samples;Min_cycle;Max_cycle;Signal;HPM_P1;HPM_P2
2021/03/26 00:18:10;;;;;;;;;;;8.30;76.70;;;6.58;57.65;96168.13;10206341;29;1339;-88
2021/03/26 00:41:15;;;;;;;;;;;8.10;78.40;;;6.20;59.58;96174.88;10315980;28;2535;-89
2021/03/26 00:46:59;;;;;;;;;;;8.40;79.00;;;6.01;60.38;96168.88;10318193;28;1892;-88
2021/03/26 00:52:33;;;;;;;;;;;8.40;79.40;;;5.89;61.00;96176.84;10315101;28;2428;-87
2021/03/26 01:15:16;;;;;;;;;;;8.20;81.10;;;5.64;61.92;96171.78;10212003;29;2090;-85
2021/03/26 01:20:47;;;;;;;;;;;7.00;80.70;;;5.60;62.04;96169.81;10214784;29;2312;-86
2021/03/26 01:42:59;;;;;;;;;;;;;;;;;;;;;
2021/03/26 01:48:52;;;;;;;;;;;;;;;;;;;;;
2021/03/26 01:54:13;;;;;;;;;;;7.30;83.10;;;5.52;62.93;96159.47;10313334;28;2448;-87
2021/03/26 01:59:29;;;;;;;;;;;6.60;82.80;;;5.41;63.64;96156.59;10322834;28;2672;-85
2021/03/26 02:04:59;;;;;;;;;;;7.20;83.20;;;5.37;63.73;96151.97;10340204;28;2670;-88
2021/03/26 02:10:12;;;;;;;;;;;6.50;83.10;;;5.33;64.04;96148.13;10323763;28;2345;-88
2021/03/26 02:15:28;;;;;;;;;;;6.40;83.30;;;5.27;64.45;96149.84;10340288;28;2182;-87
2021/03/26 02:21:11;;;;;;;;;;;7.80;84.40;;;5.18;64.72;96147.78;10339657;28;2156;-88
2021/03/26 02:26:34;;;;;;;;;;;6.40;83.90;;;5.06;65.17;96153.06;10325576;28;1955;-87
2021/03/26 02:32:02;;;;;;;;;;;;;;;;;;;;;
2021/03/26 02:37:17;;;;;;;;;;;6.20;85.00;;;4.95;66.14;96151.19;10314094;28;2047;-85
2021/03/26 02:42:38;;;;;;;;;;;6.00;85.30;;;4.91;66.29;96150.84;10315819;28;2294;-86
2021/03/26 02:48:01;;;;;;;;;;;7.30;86.40;;;4.92;66.80;96159.66;10329051;28;2205;-88
2021/03/26 02:59:24;;;;;;;;;;;6.80;86.80;;;4.95;66.40;96168.00;10357912;28;1622;-87
2021/03/26 03:04:59;;;;;;;;;;;6.00;86.40;;;4.95;65.90;96175.16;10312294;28;2566;-90
2021/03/26 03:10:11;;;;;;;;;;;6.00;86.10;;;4.86;66.39;96170.19;10320506;28;2576;-87
2021/03/26 03:15:36;;;;;;;;;;;6.60;86.70;;;4.86;66.48;96167.50;10344832;28;2644;-86
2021/03/26 03:21:09;;;;;;;;;;;6.00;86.80;;;4.81;66.47;96166.56;10313332;28;1978;-85
2021/03/26 03:26:24;;;;;;;;;;;8.00;88.00;;;4.76;66.94;96167.25;10337918;28;1899;-86
2021/03/26 03:37:07;;;;;;;;;;;5.80;87.00;;;4.83;65.86;96156.50;10338162;28;2067;-87
2021/03/26 03:42:44;;;;;;;;;;;;;;;;;;;;;
2021/03/26 03:48:11;;;;;;;;;;;;;;;;;;;;;
2021/03/26 03:59:19;;;;;;;;;;;6.10;86.80;;;5.08;65.15;96145.66;10323393;28;2421;-85
2021/03/26 04:05:01;;;;;;;;;;;6.10;86.60;;;5.11;65.10;96150.53;10320949;28;1970;-84
2021/03/26 04:16:27;;;;;;;;;;;6.00;86.20;;;4.75;65.72;96135.53;10308169;28;2284;-85
2021/03/26 04:21:37;;;;;;;;;;;7.10;87.30;;;4.60;66.89;96134.09;10298738;28;2623;-85
2021/03/26 04:26:54;;;;;;;;;;;5.70;87.10;;;4.49;67.13;96158.00;10307962;28;2165;-83
2021/03/26 04:32:28;;;;;;;;;;;5.60;87.30;;;4.38;67.29;96153.44;10308094;28;2276;-86
2021/03/26 04:38:07;;;;;;;;;;;;;;;;;;;;;
2021/03/26 04:48:46;;;;;;;;;;;5.40;88.60;;;4.09;67.93;96160.38;10531304;23;1856;-86
2021/03/26 04:54:17;;;;;;;;;;;6.00;89.10;;;4.01;69.00;96170.28;10203833;29;1867;-86
2021/03/26 04:59:56;;;;;;;;;;;;;;;;;;;;;
2021/03/26 05:11:31;;;;;;;;;;;5.60;90.10;;;3.86;69.11;96163.69;10001452;23;1894;-84
2021/03/26 05:41:13;;;;;;;;;;;5.20;89.50;;;4.46;66.24;96153.16;10211473;29;2262;-85
2021/03/26 06:11:00;;;;;;;;;;;6.20;85.70;;;5.62;61.55;96149.88;10222596;29;2121;-86
2021/03/26 06:23:11;;;;;;;;;;;6.60;83.90;;;6.23;59.59;96147.69;10030585;29;2121;-86
2021/03/26 07:27:37;;;;;;;;;;;9.60;74.80;;;9.36;49.34;96115.06;10166200;29;2640;-87
2021/03/26 07:57:47;;;;;;;;;;;11.10;71.00;;;10.55;46.97;96111.66;10242789;29;2077;-85
2021/03/26 14:16:39;;;;;;;;;;;17.60;42.90;;;16.42;24.88;95773.78;1809949;23;3263;-84
2021/03/26 14:21:42;;;;;;;;;;;17.40;43.70;;;16.48;24.38;95769.81;10330966;28;2357;-84
2021/03/26 14:26:44;;;;;;;;;;;17.40;43.60;;;16.40;24.32;95762.41;10345900;28;1985;-87
2021/03/26 14:31:46;;;;;;;;;;;17.40;43.20;;;16.46;24.43;95751.09;10342085;28;2250;-85
2021/03/26 14:36:48;;;;;;;;;;;17.40;43.60;;;16.44;25.03;95749.84;10344097;28;2359;-85
2021/03/26 14:41:50;;;;;;;;;;;17.50;43.50;;;16.43;25.36;95751.75;10338861;28;2431;-86
2021/03/26 14:46:52;;;;;;;;;;;17.40;43.90;;;16.49;25.09;95747.00;10332557;28;2008;-88
2021/03/26 14:51:57;;;;;;;;;;;17.40;43.90;;;16.37;25.63;95741.34;10325994;28;2419;-85
2021/03/26 14:56:59;;;;;;;;;;;17.40;44.40;;;16.44;24.57;95738.97;10352236;28;2279;-86
2021/03/26 15:02:03;;;;;;;;;;;17.30;43.70;;;16.39;25.45;95742.63;10354753;28;2248;-86
2021/03/26 15:07:06;;;;;;;;;;;17.40;43.80;;;16.35;25.20;95732.69;10360349;28;2750;-86
2021/03/26 15:12:07;;;;;;;;;;;17.30;44.00;;;16.20;25.55;95731.19;10374359;28;2011;-84
2021/03/26 15:17:10;;;;;;;;;;;17.30;44.10;;;16.15;25.85;95731.31;10364990;28;2186;-85
2021/03/26 15:22:12;;;;;;;;;;;17.20;44.10;;;16.10;25.62;95732.25;10359753;28;1722;-86
2021/03/26 15:27:54;;;;;;;;;;;17.10;44.10;;;16.09;26.38;95725.22;10344069;28;1891;-85
2021/03/26 16:02:37;;;;;;;;;;;16.60;45.80;;;15.65;27.76;95710.56;10347049;28;2361;-86
2021/03/26 16:14:38;;;;;;;;;;;16.50;46.70;;;15.59;27.86;95706.34;10343477;28;2342;-86
2021/03/26 16:38:36;;;;;;;;;;;16.00;47.20;;;14.83;28.31;95721.56;10334894;28;2546;-86
2021/03/26 16:50:23;;;;;;;;;;;15.80;47.10;;;14.63;28.54;95721.94;10349164;28;1695;-86
2021/03/26 16:55:28;;;;;;;;;;;15.70;47.00;;;14.59;29.29;95716.34;10355316;28;2245;-86
2021/03/26 17:00:42;;;;;;;;;;;15.70;47.10;;;14.54;29.47;95716.44;10360909;28;2394;-88
2021/03/26 17:05:54;;;;;;;;;;;15.60;47.30;;;14.40;29.45;95719.09;10352459;28;1891;-87
2021/03/26 17:11:05;;;;;;;;;;;15.50;47.40;;;14.26;30.12;95718.28;10337690;28;1307;-87
2021/03/26 17:16:07;;;;;;;;;;;15.40;48.00;;;14.18;29.65;95729.75;10322821;28;1954;-85
2021/03/26 17:21:09;;;;;;;;;;;15.30;47.80;;;14.10;29.50;95730.44;10319415;28;1733;-84
2021/03/26 17:26:11;;;;;;;;;;;15.10;47.40;;;13.91;29.71;95728.59;10327930;28;2835;-85
2021/03/26 17:36:51;;;;;;;;;;;14.90;47.90;;;13.39;30.74;95726.97;10343201;28;2345;-84
2021/03/26 17:41:54;;;;;;;;;;;14.60;48.20;;;13.07;31.24;95722.25;10350121;28;2455;-83
2021/03/26 17:46:58;;;;;;;;;;;14.30;48.70;;;12.78;31.57;95723.16;10352805;28;2068;-85
2021/03/26 17:52:05;;;;;;;;;;;14.10;49.00;;;12.53;32.33;95726.94;10345958;28;2154;-84
2021/03/26 17:57:08;;;;;;;;;;;13.80;49.30;;;12.48;32.31;95728.91;10326958;28;1775;-85
2021/03/26 18:02:11;;;;;;;;;;;13.70;49.80;;;12.39;32.65;95723.34;10360854;28;2409;-84
2021/03/26 18:07:13;;;;;;;;;;;13.60;50.00;;;12.25;32.79;95725.09;10345607;28;2573;-86
2021/03/26 18:12:15;;;;;;;;;;;13.50;50.20;;;12.25;32.35;95731.28;10362784;28;2213;-87
2021/03/26 18:17:24;;;;;;;;;;;13.40;50.50;;;12.23;33.46;95746.97;10373108;28;1952;-84
2021/03/26 18:22:33;;;;;;;;;;;13.40;50.80;;;12.21;33.34;95748.31;10349508;28;2379;-85
2021/03/26 18:27:39;;;;;;;;;;;13.30;51.30;;;11.97;34.98;95751.78;10347163;28;2402;-86
2021/03/26 18:32:44;;;;;;;;;;;13.20;52.00;;;11.80;35.10;95757.53;10352304;28;2216;-86
2021/03/26 18:38:10;;;;;;;;;;;13.10;52.40;;;11.72;34.98;95755.44;10348102;28;2385;-86
2021/03/26 18:43:14;;;;;;;;;;;12.90;52.70;;;11.79;34.64;95764.00;10343891;28;2766;-85
2021/03/26 18:48:16;;;;;;;;;;;12.80;52.50;;;11.71;35.43;95761.91;10347193;28;2081;-84
2021/03/26 18:53:22;;;;;;;;;;;12.80;53.00;;;11.59;36.34;95774.94;10330133;28;2246;-83
2021/03/26 18:58:30;;;;;;;;;;;12.70;53.50;;;11.51;35.94;95773.59;10335717;28;2449;-85
2021/03/26 19:03:32;;;;;;;;;;;12.70;53.60;;;11.48;36.53;95768.78;10341159;28;2312;-85
2021/03/26 19:32:51;;;;;;;;;;;12.30;55.60;;;10.80;39.47;95785.53;10246941;28;1938;-84
2021/03/26 19:43:57;;;;;;;;;;;11.90;57.30;;;10.40;41.04;95791.03;10301838;28;1911;-86
2021/03/26 19:49:29;;;;;;;;;;;11.70;58.00;;;10.28;41.07;95794.00;10359830;28;1874;-86
2021/03/26 20:06:13;;;;;;;;;;;11.30;59.60;;;10.00;43.00;95792.66;10348001;23;2309;-87
2021/03/26 20:11:52;;;;;;;;;;;11.20;60.20;;;9.90;44.06;95798.00;10334749;28;2309;-87
2021/03/26 20:17:48;;;;;;;;;;;11.10;60.90;;;9.86;45.17;95796.94;10196115;29;1640;-88
2021/03/26 20:23:18;;;;;;;;;;;11.00;61.90;;;9.73;46.42;95793.72;10201642;29;2286;-84
2021/03/26 20:28:26;;;;;;;;;;;10.90;62.80;;;9.68;45.51;95788.34;10193466;29;2270;-84
2021/03/26 20:33:28;;;;;;;;;;;10.80;62.70;;;9.60;46.67;95788.06;10275372;28;2297;-84
2021/03/26 20:38:30;;;;;;;;;;;10.80;63.30;;;9.49;47.55;95792.63;10349541;28;2277;-84
2021/03/26 20:43:38;;;;;;;;;;;10.70;64.70;;;9.39;47.85;95789.91;10336206;28;2694;-84
2021/03/26 20:48:45;;;;;;;;;;;10.60;64.90;;;9.26;48.05;95783.16;10325498;28;2359;-85
2021/03/26 21:17:23;;;;;;;;;;;10.20;66.10;;;9.04;48.68;95793.31;10226223;29;2527;-86
2021/03/26 21:22:28;;;;;;;;;;;10.10;66.60;;;9.12;49.29;95795.47;10232522;29;2147;-84
2021/03/26 21:27:30;;;;;;;;;;;10.10;67.30;;;9.10;49.00;95801.09;10240833;29;2509;-85
2021/03/26 21:32:31;;;;;;;;;;;10.20;67.40;;;9.09;49.25;95802.16;10217363;29;2135;-86
2021/03/26 21:37:34;;;;;;;;;;;10.20;67.40;;;9.00;49.61;95794.91;10198703;29;2090;-86
2021/03/26 21:42:36;;;;;;;;;;;10.10;67.70;;;8.83;50.42;95787.84;10234036;29;2477;-86
2021/03/26 21:47:38;;;;;;;;;;;10.00;68.00;;;8.71;51.37;95795.28;10232818;29;2372;-86
2021/03/26 21:52:40;;;;;;;;;;;9.80;68.60;;;8.69;51.23;95788.59;10304633;28;2061;-85
2021/03/26 21:57:42;;;;;;;;;;;10.80;69.90;;;8.60;51.07;95781.06;10366271;28;2236;-86
2021/03/26 22:02:44;;;;;;;;;;;9.70;69.40;;;8.64;51.80;95784.00;10371212;28;1897;-86
2021/03/26 22:07:47;;;;;;;;;;;9.70;69.70;;;8.61;52.13;95780.00;10354222;28;2077;-87
2021/03/26 22:12:49;;;;;;;;;;;10.90;70.80;;;8.64;51.93;95790.16;10380680;28;1956;-86
2021/03/26 22:17:51;;;;;;;;;;;9.70;70.50;;;8.85;51.78;95787.59;10376181;28;1741;-87
2021/03/26 22:22:53;;;;;;;;;;;10.50;71.00;;;9.04;51.35;95779.91;10371438;28;1812;-88
2021/03/26 22:27:55;;;;;;;;;;;9.90;70.40;;;9.06;51.73;95791.97;10373940;28;2207;-87
2021/03/26 22:32:57;;;;;;;;;;;10.00;70.70;;;9.17;51.84;95806.22;10356361;28;2564;-85
2021/03/26 22:37:59;;;;;;;;;;;10.00;70.80;;;9.34;51.33;95788.00;10395484;28;1506;-86
2021/03/26 22:43:03;;;;;;;;;;;10.20;70.60;;;9.34;51.48;95784.53;10323213;28;2292;-84
2021/03/26 22:48:05;;;;;;;;;;;10.30;70.50;;;9.23;51.27;95786.41;10344343;28;1914;-86
2021/03/26 22:53:07;;;;;;;;;;;10.30;70.60;;;9.13;52.06;95783.69;10360478;28;2628;-86
2021/03/26 22:58:09;;;;;;;;;;;10.20;70.70;;;8.98;52.24;95760.31;10348611;28;2286;-87
2021/03/26 23:03:14;;;;;;;;;;;10.10;71.20;;;8.74;53.12;95759.16;10338855;28;2615;-86
2021/03/26 23:08:16;;;;;;;;;;;9.90;71.60;;;8.70;53.41;95752.69;10346946;28;2292;-87
2021/03/26 23:13:19;;;;;;;;;;;9.80;72.00;;;8.55;53.98;95758.78;10341239;28;2311;-86
2021/03/26 23:18:21;;;;;;;;;;;9.90;72.40;;;8.40;54.25;95754.19;10354985;28;2061;-87
2021/03/26 23:23:24;;;;;;;;;;;9.60;72.70;;;8.27;54.65;95749.22;10341455;28;2463;-87
2021/03/26 23:28:27;;;;;;;;;;;9.40;73.10;;;8.21;55.43;95748.41;10352987;28;2490;-88
2021/03/26 23:33:29;;;;;;;;;;;9.30;73.80;;;8.27;54.86;95742.03;10349018;28;2012;-87
2021/03/26 23:38:31;;;;;;;;;;;9.80;74.50;;;8.21;55.59;95744.94;10340183;28;2045;-87
2021/03/26 23:43:33;;;;;;;;;;;9.60;74.50;;;8.18;55.64;95746.25;10340801;28;2009;-85
2021/03/26 23:48:35;;;;;;;;;;;9.20;74.30;;;8.18;55.99;95730.19;10356535;28;2385;-85
2021/03/26 23:53:37;;;;;;;;;;;9.40;74.80;;;8.14;55.77;95734.41;10337893;28;2035;-88
2021/03/26 23:58:39;;;;;;;;;;;9.20;74.80;;;8.18;55.88;95724.81;10338081;28;2317;-86
